createdAt,value
2019-01-11T00:00:21.250Z,56.30
2019-01-11T00:01:21.225Z,70.00
2019-01-11T00:02:21.222Z,58.80
2019-01-11T00:03:21.231Z,59.60
2019-01-11T00:04:21.216Z,60.20
2019-01-11T00:05:21.225Z,60.40
2019-01-11T00:06:21.175Z,56.30
2019-01-11T00:07:21.209Z,61.70
2019-01-11T00:08:21.158Z,61.30
2019-01-11T00:09:21.164Z,58.90
2019-01-11T00:10:21.164Z,54.20
2019-01-11T00:11:21.134Z,54.90
2019-01-11T00:12:21.142Z,56.80
2019-01-11T00:13:21.100Z,59.20
2019-01-11T00:14:21.112Z,55.40
2019-01-11T00:15:21.096Z,54.70
2019-01-11T00:16:21.087Z,49.50
2019-01-11T00:17:21.059Z,55.80
2019-01-11T00:18:21.051Z,56.20
2019-01-11T00:19:21.063Z,54.30
2019-01-11T00:20:21.040Z,54.00
2019-01-11T00:21:21.041Z,51.70
2019-01-11T00:22:21.030Z,58.10
2019-01-11T00:23:21.001Z,57.20
2019-01-11T00:24:20.994Z,56.70
2019-01-11T00:25:20.976Z,54.30
2019-01-11T00:26:21.019Z,50.80
2019-01-11T00:27:20.978Z,41.60
2019-01-11T00:28:20.959Z,48.10
2019-01-11T00:29:20.938Z,40.60
2019-01-11T00:30:20.935Z,34.20
2019-01-11T00:31:20.913Z,38.30
2019-01-11T00:32:20.924Z,35.20
2019-01-11T00:33:20.905Z,38.90
2019-01-11T00:34:20.887Z,36.50
2019-01-11T00:35:20.880Z,37.00
2019-01-11T00:36:20.865Z,37.30
2019-01-11T00:37:20.897Z,36.70
2019-01-11T00:38:20.845Z,39.60
2019-01-11T00:39:20.829Z,38.70
2019-01-11T00:40:20.818Z,37.50
2019-01-11T00:41:20.818Z,35.10
2019-01-11T00:42:20.825Z,36.90
2019-01-11T00:43:20.784Z,36.60
2019-01-11T00:44:20.788Z,32.40
2019-01-11T00:45:20.769Z,32.20
2019-01-11T00:46:20.773Z,25.50
2019-01-11T00:47:20.762Z,27.50
2019-01-11T00:48:20.746Z,26.50
2019-01-11T00:49:20.736Z,29.70
2019-01-11T00:50:20.719Z,34.10
2019-01-11T00:51:20.706Z,30.50
2019-01-11T00:52:20.732Z,24.10
2019-01-11T00:53:20.686Z,23.30
2019-01-11T00:54:20.693Z,21.70
2019-01-11T00:55:20.656Z,23.30
2019-01-11T00:56:20.647Z,24.80
2019-01-11T00:57:20.683Z,22.60
2019-01-11T00:58:20.641Z,25.50
2019-01-11T00:59:20.627Z,23.60
2019-01-11T01:00:20.619Z,23.30
2019-01-11T01:01:20.590Z,21.00
2019-01-11T01:02:20.606Z,19.00
2019-01-11T01:03:20.606Z,18.60
2019-01-11T01:04:20.565Z,18.30
2019-01-11T01:05:20.554Z,21.60
2019-01-11T01:06:20.553Z,17.40
2019-01-11T01:07:20.548Z,18.30
2019-01-11T01:08:20.523Z,16.90
2019-01-11T01:09:20.539Z,20.10
2019-01-11T01:10:20.513Z,15.60
2019-01-11T01:11:20.488Z,21.00
2019-01-11T01:12:20.492Z,18.80
2019-01-11T01:13:20.498Z,18.10
2019-01-11T01:14:20.465Z,16.40
2019-01-11T01:15:20.471Z,17.00
2019-01-11T01:16:20.434Z,17.70
2019-01-11T01:17:20.451Z,15.30
2019-01-11T01:18:20.418Z,15.30
2019-01-11T01:19:20.407Z,17.50
2019-01-11T01:20:20.392Z,15.60
2019-01-11T01:21:20.415Z,21.30
2019-01-11T01:22:20.403Z,20.40
2019-01-11T01:23:20.369Z,14.10
2019-01-11T01:24:20.380Z,15.60
2019-01-11T01:25:20.354Z,17.10
2019-01-11T01:26:20.341Z,15.60
2019-01-11T01:27:20.342Z,16.70
2019-01-11T01:28:20.316Z,15.70
2019-01-11T01:29:20.306Z,17.40
2019-01-11T01:30:20.296Z,16.10
2019-01-11T01:31:20.315Z,16.00
2019-01-11T01:32:20.288Z,19.70
2019-01-11T01:33:20.274Z,18.30
2019-01-11T01:34:20.259Z,17.70
2019-01-11T01:35:20.257Z,20.40
2019-01-11T01:36:20.228Z,22.80
2019-01-11T01:37:20.256Z,20.70
2019-01-11T01:38:20.206Z,20.70
2019-01-11T01:39:20.193Z,19.50
2019-01-11T01:40:20.194Z,20.10
2019-01-11T01:41:20.174Z,24.30
2019-01-11T01:42:20.172Z,23.20
2019-01-11T01:43:20.177Z,26.10
2019-01-11T01:44:20.142Z,25.00
2019-01-11T01:45:20.137Z,29.50
2019-01-11T01:46:20.124Z,26.10
2019-01-11T01:47:20.126Z,26.10
2019-01-11T01:48:20.095Z,29.30
2019-01-11T01:49:26.381Z,34.40
2019-01-11T01:50:21.088Z,29.40
2019-01-11T01:51:20.093Z,31.90
2019-01-11T01:52:20.071Z,28.90
2019-01-11T01:53:20.068Z,29.70
2019-01-11T01:54:20.042Z,30.60
2019-01-11T01:55:20.032Z,30.50
2019-01-11T01:56:20.015Z,28.90
2019-01-11T01:57:20.008Z,32.60
2019-01-11T01:58:20.006Z,32.70
2019-01-11T01:59:19.998Z,28.70
2019-01-11T02:00:19.988Z,33.50
2019-01-11T02:01:19.967Z,28.10
2019-01-11T02:02:19.953Z,30.90
2019-01-11T02:03:19.966Z,28.30
2019-01-11T02:04:19.931Z,28.90
2019-01-11T02:05:20.138Z,27.60
2019-01-11T02:06:19.924Z,31.70
2019-01-11T02:07:19.925Z,28.10
2019-01-11T02:08:19.940Z,28.40
2019-01-11T02:09:19.894Z,24.30
2019-01-11T02:10:19.876Z,26.50
2019-01-11T02:11:19.856Z,26.50
2019-01-11T02:12:19.883Z,23.60
2019-01-11T02:13:19.863Z,25.10
2019-01-11T02:14:19.840Z,26.70
2019-01-11T02:15:19.818Z,29.10
2019-01-11T02:16:19.818Z,26.90
2019-01-11T02:17:19.793Z,28.10
2019-01-11T02:18:19.790Z,27.30
2019-01-11T02:19:19.797Z,26.10
2019-01-11T02:20:19.766Z,28.60
2019-01-11T02:21:19.750Z,30.60
2019-01-11T02:22:19.745Z,30.90
2019-01-11T02:23:19.745Z,30.20
2019-01-11T02:24:19.737Z,30.90
2019-01-11T02:25:19.722Z,35.10
2019-01-11T02:26:19.751Z,34.90
2019-01-11T02:27:19.705Z,32.20
2019-01-11T02:28:19.684Z,35.60
2019-01-11T02:29:19.692Z,34.00
2019-01-11T02:30:19.679Z,34.30
2019-01-11T02:31:19.647Z,33.50
2019-01-11T02:32:19.638Z,34.20
2019-01-11T02:33:24.828Z,33.00
2019-01-11T02:34:20.638Z,34.20
2019-01-11T02:35:19.621Z,29.40
2019-01-11T02:36:19.609Z,38.40
2019-01-11T02:37:19.594Z,32.50
2019-01-11T02:38:19.633Z,31.80
2019-01-11T02:39:19.582Z,33.10
2019-01-11T02:40:19.547Z,29.40
2019-01-11T02:41:19.551Z,33.00
2019-01-11T02:42:19.575Z,32.90
2019-01-11T02:43:19.529Z,28.00
2019-01-11T02:44:19.529Z,28.90
2019-01-11T02:45:19.496Z,27.70
2019-01-11T02:46:19.490Z,29.90
2019-01-11T02:47:19.686Z,28.90
2019-01-11T02:48:19.498Z,25.50
2019-01-11T02:49:19.472Z,24.10
2019-01-11T02:50:19.441Z,25.60
2019-01-11T02:51:19.431Z,25.00
2019-01-11T02:52:19.429Z,28.60
2019-01-11T02:53:19.414Z,26.80
2019-01-11T02:54:19.446Z,30.10
2019-01-11T02:55:19.395Z,27.50
2019-01-11T02:56:19.394Z,27.20
2019-01-11T02:57:19.382Z,26.10
2019-01-11T02:58:19.357Z,22.60
2019-01-11T02:59:19.371Z,23.70
2019-01-11T03:00:19.362Z,25.90
2019-01-11T03:01:19.363Z,24.30
2019-01-11T03:02:19.346Z,21.20
2019-01-11T03:03:19.343Z,22.80
2019-01-11T03:04:19.360Z,26.30
2019-01-11T03:05:19.302Z,25.40
2019-01-11T03:06:19.274Z,26.20
2019-01-11T03:07:19.292Z,23.40
2019-01-11T03:08:19.290Z,26.20
2019-01-11T03:09:19.262Z,25.00
2019-01-11T03:10:19.242Z,21.30
2019-01-11T03:11:19.234Z,21.20
2019-01-11T03:12:19.219Z,28.40
2019-01-11T03:13:19.207Z,24.50
2019-01-11T03:14:19.251Z,28.00
2019-01-11T03:15:19.183Z,26.10
2019-01-11T03:16:19.180Z,28.80
2019-01-11T03:17:19.166Z,24.80
2019-01-11T03:18:19.152Z,23.60
2019-01-11T03:19:19.154Z,27.90
2019-01-11T03:20:19.124Z,22.50
2019-01-11T03:21:19.143Z,25.90
2019-01-11T03:22:19.108Z,27.40
2019-01-11T03:23:19.096Z,27.30
2019-01-11T03:24:19.107Z,22.80
2019-01-11T03:25:19.071Z,25.20
2019-01-11T03:26:19.063Z,25.90
2019-01-11T03:27:19.056Z,31.00
2019-01-11T03:28:19.039Z,24.80
2019-01-11T03:29:19.055Z,25.40
2019-01-11T03:30:19.054Z,28.40
2019-01-11T03:31:19.015Z,25.00
2019-01-11T03:32:18.998Z,24.30
2019-01-11T03:33:19.011Z,22.80
2019-01-11T03:34:18.978Z,24.70
2019-01-11T03:35:18.991Z,24.50
2019-01-11T03:36:18.957Z,24.30
2019-01-11T03:37:18.955Z,26.90
2019-01-11T03:38:18.934Z,24.20
2019-01-11T03:39:18.947Z,21.40
2019-01-11T03:40:18.933Z,23.80
2019-01-11T03:41:18.931Z,23.40
2019-01-11T03:42:18.898Z,23.00
2019-01-11T03:43:18.887Z,25.20
2019-01-11T03:44:18.872Z,24.10
2019-01-11T03:45:18.895Z,24.10
2019-01-11T03:46:18.851Z,23.20
2019-01-11T03:47:18.864Z,22.70
2019-01-11T03:48:18.855Z,25.30
2019-01-11T03:49:18.829Z,24.70
2019-01-11T03:50:18.833Z,26.10
2019-01-11T03:51:18.912Z,25.80
2019-01-11T03:52:18.799Z,25.60
2019-01-11T03:53:18.789Z,24.00
2019-01-11T03:54:18.784Z,22.40
2019-01-11T03:55:18.787Z,22.60
2019-01-11T03:56:18.746Z,21.90
2019-01-11T03:57:18.738Z,20.70
2019-01-11T03:58:18.742Z,24.30
2019-01-11T03:59:18.770Z,24.30
2019-01-11T04:00:18.732Z,21.70
2019-01-11T04:01:18.708Z,25.50
2019-01-11T04:02:18.694Z,22.40
2019-01-11T04:03:18.722Z,22.90
2019-01-11T04:04:18.737Z,25.70
2019-01-11T04:05:18.651Z,24.10
2019-01-11T04:06:18.647Z,22.40
2019-01-11T04:07:18.652Z,22.60
2019-01-11T04:08:18.670Z,24.30
2019-01-11T04:09:18.606Z,22.00
2019-01-11T04:10:18.644Z,24.00
2019-01-11T04:11:18.597Z,21.20
2019-01-11T04:12:18.609Z,21.10
2019-01-11T04:13:18.585Z,22.10
2019-01-11T04:14:18.562Z,22.90
2019-01-11T04:15:18.546Z,23.70
2019-01-11T04:16:18.537Z,21.80
2019-01-11T04:17:18.538Z,22.70
2019-01-11T04:18:18.537Z,21.00
2019-01-11T04:19:18.526Z,23.60
2019-01-11T04:20:18.500Z,22.00
2019-01-11T04:21:18.481Z,24.40
2019-01-11T04:22:18.495Z,27.40
2019-01-11T04:23:18.554Z,23.20
2019-01-11T04:24:18.469Z,23.00
2019-01-11T04:25:18.456Z,20.80
2019-01-11T04:26:18.427Z,25.80
2019-01-11T04:27:18.422Z,22.60
2019-01-11T04:28:18.427Z,24.10
2019-01-11T04:29:18.401Z,23.10
2019-01-11T04:30:18.386Z,26.30
2019-01-11T04:31:18.398Z,24.80
2019-01-11T04:32:18.389Z,27.40
2019-01-11T04:33:18.375Z,27.30
2019-01-11T04:34:18.342Z,24.10
2019-01-11T04:35:18.346Z,25.30
2019-01-11T04:36:18.325Z,22.50
2019-01-11T04:37:18.330Z,26.30
2019-01-11T04:38:18.311Z,29.50
2019-01-11T04:39:18.336Z,26.70
2019-01-11T04:40:18.282Z,22.90
2019-01-11T04:41:18.272Z,24.60
2019-01-11T04:42:18.257Z,25.50
2019-01-11T04:43:18.250Z,26.70
2019-01-11T04:44:18.257Z,27.40
2019-01-11T04:45:18.252Z,28.30
2019-01-11T04:46:18.220Z,24.90
2019-01-11T04:47:18.207Z,29.20
2019-01-11T04:48:18.201Z,26.10
2019-01-11T04:49:18.210Z,26.10
2019-01-11T04:50:18.176Z,26.10
2019-01-11T04:51:18.179Z,28.40
2019-01-11T04:52:18.152Z,29.20
2019-01-11T04:53:18.140Z,27.70
2019-01-11T04:54:18.193Z,24.90
2019-01-11T04:55:18.121Z,30.40
2019-01-11T04:56:18.112Z,23.40
2019-01-11T04:57:18.110Z,24.60
2019-01-11T04:58:18.135Z,24.10
2019-01-11T04:59:18.124Z,21.40
2019-01-11T05:00:18.068Z,24.10
2019-01-11T05:01:18.081Z,22.90
2019-01-11T05:02:18.054Z,25.00
2019-01-11T05:03:18.041Z,23.00
2019-01-11T05:04:18.053Z,21.60
2019-01-11T05:05:18.028Z,26.40
2019-01-11T05:06:18.002Z,25.80
2019-01-11T05:07:17.996Z,21.90
2019-01-11T05:08:17.997Z,23.00
2019-01-11T05:09:18.037Z,25.50
2019-01-11T05:10:17.976Z,24.60
2019-01-11T05:11:18.003Z,27.20
2019-01-11T05:12:18.047Z,24.10
2019-01-11T05:13:17.962Z,23.40
2019-01-11T05:14:18.056Z,17.10
2019-01-11T05:15:18.008Z,24.40
2019-01-11T05:16:17.952Z,23.80
2019-01-11T05:17:17.903Z,24.00
2019-01-11T05:18:17.946Z,24.20
2019-01-11T05:19:17.917Z,24.40
2019-01-11T05:20:17.921Z,22.10
2019-01-11T05:21:17.882Z,20.90
2019-01-11T05:22:17.941Z,22.00
2019-01-11T05:23:17.878Z,23.70
2019-01-11T05:24:17.861Z,25.70
2019-01-11T05:25:17.878Z,24.20
2019-01-11T05:26:17.806Z,21.10
2019-01-11T05:27:17.783Z,25.20
2019-01-11T05:28:17.829Z,24.00
2019-01-11T05:29:17.798Z,24.20
2019-01-11T05:30:17.779Z,20.50
2019-01-11T05:31:17.744Z,21.60
2019-01-11T05:32:17.738Z,24.10
2019-01-11T05:33:17.741Z,22.00
2019-01-11T05:34:17.751Z,19.60
2019-01-11T05:35:17.715Z,23.20
2019-01-11T05:36:17.706Z,20.10
2019-01-11T05:37:17.685Z,23.00
2019-01-11T05:38:17.704Z,21.80
2019-01-11T05:39:17.709Z,24.20
2019-01-11T05:40:17.651Z,22.50
2019-01-11T05:41:17.648Z,21.40
2019-01-11T05:42:17.662Z,25.80
2019-01-11T05:43:17.635Z,21.30
2019-01-11T05:44:17.653Z,23.40
2019-01-11T05:45:17.632Z,24.80
2019-01-11T05:46:17.593Z,23.40
2019-01-11T05:47:17.586Z,24.00
2019-01-11T05:48:17.578Z,24.80
2019-01-11T05:49:17.649Z,22.00
2019-01-11T05:50:24.075Z,24.30
2019-01-11T05:51:18.544Z,23.00
2019-01-11T05:52:17.527Z,23.70
2019-01-11T05:53:17.518Z,19.20
2019-01-11T05:54:17.521Z,21.40
2019-01-11T05:55:17.543Z,26.70
2019-01-11T05:56:17.569Z,21.60
2019-01-11T05:57:17.527Z,24.50
2019-01-11T05:58:17.482Z,25.10
2019-01-11T05:59:17.468Z,22.30
2019-01-11T06:00:17.487Z,24.70
2019-01-11T06:01:17.460Z,22.10
2019-01-11T06:02:17.494Z,23.20
2019-01-11T06:03:17.437Z,19.30
2019-01-11T06:04:17.395Z,17.10
2019-01-11T06:05:17.413Z,19.20
2019-01-11T06:06:17.433Z,25.70
2019-01-11T06:07:17.388Z,21.70
2019-01-11T06:08:17.359Z,17.70
2019-01-11T06:09:17.361Z,20.60
2019-01-11T06:10:17.378Z,23.80
2019-01-11T06:11:17.341Z,20.90
2019-01-11T06:12:17.327Z,20.10
2019-01-11T06:13:17.311Z,20.60
2019-01-11T06:14:17.314Z,24.40
2019-01-11T06:15:17.318Z,21.00
2019-01-11T06:16:17.452Z,20.30
2019-01-11T06:17:17.288Z,21.70
2019-01-11T06:18:17.268Z,25.00
2019-01-11T06:19:17.240Z,25.10
2019-01-11T06:20:17.228Z,25.40
2019-01-11T06:21:17.311Z,24.60
2019-01-11T06:22:17.282Z,22.10
2019-01-11T06:23:17.218Z,21.40
2019-01-11T06:24:17.253Z,15.70
2019-01-11T06:25:17.206Z,19.00
2019-01-11T06:26:17.287Z,20.00
2019-01-11T06:27:17.217Z,20.40
2019-01-11T06:28:17.179Z,20.70
2019-01-11T06:29:17.195Z,21.00
2019-01-11T06:30:17.179Z,22.20
2019-01-11T06:31:17.255Z,26.70
2019-01-11T06:32:17.161Z,21.30
2019-01-11T06:33:17.109Z,21.70
2019-01-11T06:34:17.119Z,20.40
2019-01-11T06:35:17.145Z,19.10
2019-01-11T06:36:17.185Z,21.70
2019-01-11T06:37:17.119Z,21.50
2019-01-11T06:38:17.068Z,23.00
2019-01-11T06:39:17.102Z,23.50
2019-01-11T06:40:17.083Z,24.90
2019-01-11T06:41:17.215Z,23.70
2019-01-11T06:42:17.008Z,24.50
2019-01-11T06:43:16.990Z,28.00
2019-01-11T06:44:17.040Z,25.10
2019-01-11T06:45:16.968Z,23.40
2019-01-11T06:46:16.983Z,23.80
2019-01-11T06:47:18.463Z,29.50
2019-01-11T06:48:16.966Z,26.00
2019-01-11T06:49:16.927Z,24.90
2019-01-11T06:50:16.944Z,27.40
2019-01-11T06:51:16.900Z,26.00
2019-01-11T06:52:16.903Z,27.50
2019-01-11T06:53:16.904Z,27.20
2019-01-11T06:54:16.865Z,27.90
2019-01-11T06:55:16.897Z,23.80
2019-01-11T06:56:17.653Z,26.40
2019-01-11T06:57:16.851Z,29.00
2019-01-11T06:58:16.869Z,31.50
2019-01-11T06:59:16.847Z,26.30
2019-01-11T07:00:16.803Z,34.40
2019-01-11T07:01:16.874Z,29.10
2019-01-11T07:02:16.850Z,34.80
2019-01-11T07:03:16.772Z,35.80
2019-01-11T07:04:16.759Z,35.50
2019-01-11T07:05:16.782Z,31.10
2019-01-11T07:06:16.741Z,33.30
2019-01-11T07:07:16.765Z,31.80
2019-01-11T07:08:16.742Z,34.90
2019-01-11T07:09:16.717Z,34.30
2019-01-11T07:10:16.706Z,33.00
2019-01-11T07:11:16.699Z,46.40
2019-01-11T07:12:16.754Z,35.70
2019-01-11T07:13:16.728Z,35.90
2019-01-11T07:14:16.657Z,38.60
2019-01-11T07:15:16.651Z,42.80
2019-01-11T07:16:16.631Z,42.70
2019-01-11T07:17:16.702Z,36.90
2019-01-11T07:18:16.624Z,42.60
2019-01-11T07:19:16.606Z,38.70
2019-01-11T07:20:16.592Z,27.60
2019-01-11T07:21:16.578Z,31.20
2019-01-11T07:22:16.602Z,32.50
2019-01-11T07:23:16.615Z,35.10
2019-01-11T07:24:16.652Z,32.60
2019-01-11T07:25:16.627Z,34.70
2019-01-11T07:26:16.562Z,35.10
2019-01-11T07:27:16.697Z,35.10
2019-01-11T07:28:16.519Z,33.10
2019-01-11T07:29:16.633Z,37.80
2019-01-11T07:30:16.550Z,32.70
2019-01-11T07:31:16.594Z,35.70
2019-01-11T07:32:16.619Z,38.70
2019-01-11T07:33:16.492Z,42.70
2019-01-11T07:34:16.491Z,43.70
2019-01-11T07:35:16.445Z,32.60
2019-01-11T07:36:16.439Z,42.30
2019-01-11T07:37:16.456Z,35.10
2019-01-11T07:38:16.407Z,37.00
2019-01-11T07:39:16.482Z,48.10
2019-01-11T07:40:16.390Z,40.00
2019-01-11T07:41:16.512Z,43.10
2019-01-11T07:42:16.504Z,41.90
2019-01-11T07:43:16.444Z,43.20
2019-01-11T07:44:16.408Z,49.70
2019-01-11T07:45:17.162Z,45.10
2019-01-11T07:46:16.478Z,40.40
2019-01-11T07:47:16.369Z,44.90
2019-01-11T07:48:16.492Z,45.00
2019-01-11T07:49:16.408Z,48.80
2019-01-11T07:50:16.297Z,46.10
2019-01-11T07:51:16.264Z,51.50
2019-01-11T07:52:16.278Z,41.70
2019-01-11T07:53:16.388Z,43.90
2019-01-11T07:54:16.256Z,42.20
2019-01-11T07:55:16.257Z,39.40
2019-01-11T07:56:16.252Z,47.50
2019-01-11T07:57:16.241Z,44.10
2019-01-11T07:58:16.442Z,46.20
2019-01-11T07:59:16.187Z,41.90
2019-01-11T08:00:16.231Z,36.30
2019-01-11T08:01:16.241Z,34.00
2019-01-11T08:02:16.212Z,43.30
2019-01-11T08:03:16.254Z,47.40
2019-01-11T08:04:16.297Z,35.10
2019-01-11T08:05:16.202Z,45.90
2019-01-11T08:06:16.150Z,44.20
2019-01-11T08:07:16.152Z,50.30
2019-01-11T08:08:16.133Z,50.60
2019-01-11T08:09:16.152Z,35.00
2019-01-11T08:10:16.073Z,39.30
2019-01-11T08:11:16.076Z,38.80
2019-01-11T08:12:16.109Z,45.00
2019-01-11T08:13:16.157Z,64.70
2019-01-11T08:14:16.056Z,73.50
2019-01-11T08:15:16.025Z,57.60
2019-01-11T08:16:16.084Z,56.60
2019-01-11T08:17:16.005Z,46.90
2019-01-11T08:18:16.041Z,45.90
2019-01-11T08:19:15.996Z,42.30
2019-01-11T08:20:15.999Z,51.00
2019-01-11T08:21:15.973Z,67.90
2019-01-11T08:22:15.951Z,53.30
2019-01-11T08:23:15.996Z,42.10
2019-01-11T08:24:17.313Z,36.40
2019-01-11T08:25:15.905Z,39.60
2019-01-11T08:26:15.915Z,39.70
2019-01-11T08:27:15.926Z,39.90
2019-01-11T08:28:15.947Z,47.40
2019-01-11T08:29:15.879Z,43.20
2019-01-11T08:30:16.735Z,40.50
2019-01-11T08:31:15.858Z,33.50
2019-01-11T08:32:15.871Z,29.90
2019-01-11T08:33:18.689Z,31.90
2019-01-11T08:34:15.813Z,40.60
2019-01-11T08:35:15.828Z,40.20
2019-01-11T08:36:15.818Z,32.30
2019-01-11T08:37:15.787Z,36.00
2019-01-11T08:38:15.814Z,43.20
2019-01-11T08:39:15.757Z,41.70
2019-01-11T08:40:15.758Z,31.70
2019-01-11T08:41:15.765Z,31.90
2019-01-11T08:42:15.759Z,35.90
2019-01-11T08:43:15.742Z,34.40
2019-01-11T08:44:15.722Z,33.20
2019-01-11T08:45:15.718Z,30.30
2019-01-11T08:46:15.700Z,32.50
2019-01-11T08:47:15.683Z,40.30
2019-01-11T08:48:15.734Z,36.20
2019-01-11T08:49:15.655Z,30.20
2019-01-11T08:50:15.639Z,29.70
2019-01-11T08:51:15.741Z,27.90
2019-01-11T08:52:15.683Z,30.70
2019-01-11T08:53:15.655Z,35.90
2019-01-11T08:54:15.611Z,39.00
2019-01-11T08:55:15.584Z,42.60
2019-01-11T08:56:15.622Z,48.30
2019-01-11T08:57:15.572Z,27.30
2019-01-11T08:58:15.575Z,29.40
2019-01-11T08:59:15.575Z,39.20
2019-01-11T09:00:15.546Z,26.30
2019-01-11T09:01:15.531Z,32.80
2019-01-11T09:02:15.513Z,45.60
2019-01-11T09:03:15.518Z,40.60
2019-01-11T09:04:15.500Z,42.80
2019-01-11T09:05:15.503Z,33.80
2019-01-11T09:06:15.469Z,34.30
2019-01-11T09:07:15.497Z,26.20
2019-01-11T09:08:15.465Z,34.10
2019-01-11T09:09:15.437Z,28.90
2019-01-11T09:10:15.439Z,26.40
2019-01-11T09:11:15.434Z,25.50
2019-01-11T09:12:15.457Z,33.40
2019-01-11T09:13:15.515Z,36.60
2019-01-11T09:14:15.439Z,41.40
2019-01-11T09:15:15.422Z,36.50
2019-01-11T09:16:20.637Z,34.50
2019-01-11T09:17:16.363Z,29.10
2019-01-11T09:18:15.357Z,33.40
2019-01-11T09:19:15.396Z,34.70
2019-01-11T09:20:15.325Z,28.80
2019-01-11T09:21:15.312Z,29.40
2019-01-11T09:22:15.323Z,25.80
2019-01-11T09:23:15.287Z,31.00
2019-01-11T09:24:15.290Z,33.20
2019-01-11T09:25:15.275Z,28.50
2019-01-11T09:26:15.267Z,31.50
2019-01-11T09:27:15.258Z,30.70
2019-01-11T09:28:15.255Z,36.20
2019-01-11T09:29:15.244Z,34.40
2019-01-11T09:30:15.430Z,35.20
2019-01-11T09:31:15.208Z,33.30
2019-01-11T09:32:15.225Z,44.20
2019-01-11T09:33:20.445Z,35.90
2019-01-11T09:34:16.217Z,40.80
2019-01-11T09:35:15.180Z,47.80
2019-01-11T09:36:15.167Z,39.60
2019-01-11T09:37:15.149Z,30.10
2019-01-11T09:38:15.199Z,46.20
2019-01-11T09:39:15.168Z,42.60
2019-01-11T09:40:15.124Z,46.60
2019-01-11T09:41:15.112Z,43.30
2019-01-11T09:42:15.094Z,53.00
2019-01-11T09:43:15.138Z,43.30
2019-01-11T09:44:15.132Z,48.00
2019-01-11T09:45:15.055Z,42.20
2019-01-11T09:46:15.076Z,52.70
2019-01-11T09:47:15.091Z,53.50
2019-01-11T09:48:15.043Z,56.70
2019-01-11T09:49:15.091Z,51.40
2019-01-11T09:50:15.010Z,55.50
2019-01-11T09:51:15.815Z,71.00
2019-01-11T09:52:15.002Z,63.20
2019-01-11T09:53:15.029Z,75.60
2019-01-11T09:54:15.004Z,66.40
2019-01-11T09:55:14.985Z,61.10
2019-01-11T09:56:14.950Z,55.50
2019-01-11T09:57:14.939Z,67.50
2019-01-11T09:58:14.979Z,69.30
2019-01-11T09:59:14.936Z,100.60
2019-01-11T10:00:14.930Z,81.60
2019-01-11T10:01:14.929Z,100.70
2019-01-11T10:02:14.950Z,81.10
2019-01-11T10:03:14.868Z,95.80
2019-01-11T10:04:14.934Z,152.50
2019-01-11T10:05:14.846Z,112.80
2019-01-11T10:06:14.855Z,117.90
2019-01-11T10:07:14.826Z,124.00
2019-01-11T10:08:14.874Z,130.70
2019-01-11T10:09:14.836Z,141.80
2019-01-11T10:10:14.849Z,147.10
2019-01-11T10:11:14.819Z,141.50
2019-01-11T10:12:14.809Z,206.90
2019-01-11T10:13:14.774Z,142.80
2019-01-11T10:14:14.781Z,115.00
2019-01-11T10:15:14.794Z,162.80
2019-01-11T10:16:14.757Z,126.70
2019-01-11T10:17:14.755Z,162.90
2019-01-11T10:18:14.770Z,107.90
2019-01-11T10:19:14.791Z,137.80
2019-01-11T10:20:14.708Z,173.20
2019-01-11T10:21:14.742Z,197.80
2019-01-11T10:22:14.698Z,300.00
2019-01-11T10:23:14.775Z,294.20
2019-01-11T10:24:14.677Z,226.00
2019-01-11T10:25:14.640Z,355.90
2019-01-11T10:26:14.628Z,333.70
2019-01-11T10:27:14.619Z,343.70
2019-01-11T10:28:14.606Z,285.20
2019-01-11T10:29:14.618Z,123.70
2019-01-11T10:30:14.593Z,136.40
2019-01-11T10:31:14.649Z,210.50
2019-01-11T10:32:14.585Z,95.70
2019-01-11T10:33:14.608Z,217.20
2019-01-11T10:34:14.730Z,353.90
2019-01-11T10:35:14.556Z,179.60
2019-01-11T10:36:14.596Z,216.10
2019-01-11T10:37:14.536Z,227.00
2019-01-11T10:38:14.561Z,310.40
2019-01-11T10:39:14.624Z,236.40
2019-01-11T10:40:14.552Z,149.30
2019-01-11T10:41:14.547Z,140.20
2019-01-11T10:42:14.546Z,242.30
2019-01-11T10:43:14.482Z,235.90
2019-01-11T10:44:14.443Z,377.10
2019-01-11T10:45:14.526Z,200.40
2019-01-11T10:46:14.468Z,245.90
2019-01-11T10:47:14.425Z,251.70
2019-01-11T10:48:14.460Z,143.70
2019-01-11T10:49:14.383Z,188.60
2019-01-11T10:50:14.495Z,230.90
2019-01-11T10:51:14.399Z,220.70
2019-01-11T10:52:14.469Z,274.00
2019-01-11T10:53:14.423Z,298.90
2019-01-11T10:54:15.037Z,258.80
2019-01-11T10:55:14.753Z,337.00
2019-01-11T10:56:14.382Z,187.40
2019-01-11T10:57:14.330Z,332.70
2019-01-11T10:58:14.347Z,272.40
2019-01-11T10:59:14.338Z,193.00
2019-01-11T11:00:14.390Z,358.00
2019-01-11T11:01:14.344Z,374.50
2019-01-11T11:02:14.267Z,307.80
2019-01-11T11:03:14.248Z,273.10
2019-01-11T11:04:15.113Z,405.30
2019-01-11T11:05:14.233Z,353.30
2019-01-11T11:06:14.924Z,238.70
2019-01-11T11:07:15.215Z,295.60
2019-01-11T11:08:14.235Z,259.30
2019-01-11T11:09:14.167Z,271.40
2019-01-11T11:10:14.231Z,314.10
2019-01-11T11:11:16.652Z,341.20
2019-01-11T11:12:14.132Z,344.20
2019-01-11T11:13:14.145Z,147.40
2019-01-11T11:14:14.109Z,237.30
2019-01-11T11:15:14.229Z,366.00
2019-01-11T11:16:14.090Z,159.50
2019-01-11T11:17:14.113Z,178.20
2019-01-11T11:18:14.075Z,254.50
2019-01-11T11:19:14.080Z,140.20
2019-01-11T11:20:14.128Z,223.40
2019-01-11T11:21:14.033Z,154.40
2019-01-11T11:22:14.100Z,284.60
2019-01-11T11:23:14.079Z,347.60
2019-01-11T11:24:14.066Z,214.60
2019-01-11T11:25:14.104Z,275.30
2019-01-11T11:26:14.589Z,253.20
2019-01-11T11:27:13.969Z,183.00
2019-01-11T11:28:13.985Z,226.50
2019-01-11T11:29:14.006Z,243.70
2019-01-11T11:30:14.161Z,348.00
2019-01-11T11:31:13.972Z,202.40
2019-01-11T11:32:13.934Z,241.10
2019-01-11T11:33:13.904Z,252.50
2019-01-11T11:34:13.899Z,384.00
2019-01-11T11:35:13.984Z,235.50
2019-01-11T11:36:14.090Z,322.20
2019-01-11T11:37:17.731Z,319.70
2019-01-11T11:38:14.601Z,236.20
2019-01-11T11:39:13.887Z,227.00
2019-01-11T11:40:13.943Z,376.30
2019-01-11T11:41:13.820Z,206.50
2019-01-11T11:42:16.937Z,259.00
2019-01-11T11:43:13.800Z,428.20
2019-01-11T11:44:13.830Z,344.20
2019-01-11T11:45:13.836Z,324.70
2019-01-11T11:46:13.784Z,220.90
2019-01-11T11:47:14.563Z,228.60
2019-01-11T11:48:13.745Z,347.90
2019-01-11T11:49:13.734Z,454.20
2019-01-11T11:50:13.745Z,339.60
2019-01-11T11:51:13.788Z,393.20
2019-01-11T11:52:13.721Z,451.50
2019-01-11T11:53:13.695Z,382.40
2019-01-11T11:54:13.681Z,439.70
2019-01-11T11:55:13.672Z,312.60
2019-01-11T11:56:14.145Z,364.70
2019-01-11T11:57:13.744Z,342.80
2019-01-11T11:58:13.697Z,310.40
2019-01-11T11:59:13.622Z,339.80
2019-01-11T12:00:13.662Z,409.50
2019-01-11T12:01:13.632Z,258.20
2019-01-11T12:02:19.212Z,397.50
2019-01-11T12:03:14.606Z,401.60
2019-01-11T12:04:13.573Z,509.40
2019-01-11T12:05:13.564Z,437.10
2019-01-11T12:06:13.565Z,348.90
2019-01-11T12:07:13.535Z,313.90
2019-01-11T12:08:13.585Z,418.10
2019-01-11T12:09:13.620Z,431.30
2019-01-11T12:10:13.513Z,462.40
2019-01-11T12:11:13.633Z,325.10
2019-01-11T12:12:13.555Z,421.30
2019-01-11T12:13:13.563Z,398.40
2019-01-11T12:14:13.514Z,486.30
2019-01-11T12:15:13.477Z,363.30
2019-01-11T12:16:13.570Z,437.40
2019-01-11T12:17:13.506Z,390.70
2019-01-11T12:18:13.468Z,332.20
2019-01-11T12:19:13.434Z,390.60
2019-01-11T12:20:13.401Z,323.90
2019-01-11T12:21:13.486Z,202.80
2019-01-11T12:22:13.459Z,223.10
2019-01-11T12:23:13.421Z,408.70
2019-01-11T12:24:13.413Z,349.20
2019-01-11T12:25:13.401Z,451.00
2019-01-11T12:26:13.358Z,342.70
2019-01-11T12:27:13.365Z,383.20
2019-01-11T12:28:13.318Z,314.80
2019-01-11T12:29:13.378Z,372.20
2019-01-11T12:30:13.362Z,360.70
2019-01-11T12:31:13.341Z,357.70
2019-01-11T12:32:19.418Z,424.10
2019-01-11T12:33:14.303Z,273.30
2019-01-11T12:34:13.247Z,451.80
2019-01-11T12:35:13.244Z,261.30
2019-01-11T12:36:13.258Z,228.40
2019-01-11T12:37:13.215Z,255.50
2019-01-11T12:38:13.847Z,188.10
2019-01-11T12:39:13.228Z,86.60
2019-01-11T12:40:13.215Z,131.70
2019-01-11T12:41:13.202Z,160.20
2019-01-11T12:42:13.378Z,143.20
2019-01-11T12:43:13.152Z,149.60
2019-01-11T12:44:13.139Z,174.20
2019-01-11T12:45:13.142Z,156.80
2019-01-11T12:46:13.167Z,117.00
2019-01-11T12:47:13.117Z,102.70